Hauptseite
METAR-TAF:

METAR-TAF

Flughäfen :

Flughafen Sønderborg

Sønderborg, Dänemark

Breite: 54-58N, Länge: 009-47E, Höhe: 7 m

Beobachtung

Neuester Wetterbericht von vor 16 Minuten, um 20:52 UTC
Wind 9 kt aus Ost
Temperatur 7°C
Luftfeuchtigkeit 93%
Luftdruck 1011 hPa
Sichtweite 10 km oder mehr
Durchbrochene Bewölkung in der Höhe von 1700 ft

METAR: EKSB 142052Z 09009KT 9999 BKN017 07/06 Q1011

Zeit: 22:08 (21:08 UTC)

Prognose

Neuester Wetterbericht von vor 3 Stunden und 49 Minuten, um 17:19 UTC
Gültige Prognose vom 14 um 18 UTC bis 14 um 23 UTC
Wind 10 kt aus Ost
Sichtweite 10 km oder mehr
Aufgelockert bewölkt in der Höhe von 1500 ft
Zeitweise
vom 14 um 18 UTC bis 14 um 23 UTC
Durchbrochene Bewölkung in der Höhe von 1200 ft

TAF: EKSB 141719Z 1418/1423 10010KT 9999 SCT015 TEMPO 1418/1423 BKN012

Wetterbeobachtungen und Prognosen von mehr als 4000 Flughäfen (METAR und TAF Bericht).

Die verfügbaren Stationen werden durch gelbe und rote Markierungen auf der Karte dargestellt.

Führen Sie die Maus auf sie, um den Namen der Station zu sehen.

Darauf klicken, um die Beobachtung von Wetterbeobachtungen und Prognosen zu sehen.

Um die Karte zu ändern : klicken Sie auf den grünen Tasten mit einem schwarzen Kreuz Zum Vergrößern, auf den grünen Button mit einem Gedankenstrich zu verkleinern, oder auf die grünen Pfeile für benachbarte Karten.


METAR-TAF: